createdAt,value
2018-12-12T00:01:09.163Z,98122.23
2018-12-12T00:03:38.507Z,98118.51
2018-12-12T00:06:07.807Z,98114.28
2018-12-12T00:08:37.191Z,98120.02
2018-12-12T00:11:06.061Z,98115.11
2018-12-12T00:13:35.497Z,98117.78
2018-12-12T00:16:04.442Z,98113.91
2018-12-12T00:18:33.306Z,98110.50
2018-12-12T00:21:02.258Z,98110.84
2018-12-12T00:23:31.313Z,98113.37
2018-12-12T00:26:00.224Z,98119.26
2018-12-12T00:28:29.239Z,98120.11
2018-12-12T00:30:58.275Z,98114.53
2018-12-12T00:33:27.095Z,98119.95
2018-12-12T00:35:55.983Z,98119.56
2018-12-12T00:38:25.667Z,98119.72
2018-12-12T00:40:54.415Z,98121.42
2018-12-12T00:43:23.295Z,98116.00
2018-12-12T00:45:52.748Z,98117.16
2018-12-12T00:48:21.791Z,98121.34
2018-12-12T00:50:50.703Z,98115.08
2018-12-12T00:53:19.650Z,98123.47
2018-12-12T00:55:48.455Z,98119.77
2018-12-12T00:58:17.655Z,98110.63
2018-12-12T01:00:46.574Z,98116.04
2018-12-12T01:03:15.531Z,98113.99
2018-12-12T01:05:45.213Z,98110.47
2018-12-12T01:08:14.317Z,98110.63
2018-12-12T01:10:43.137Z,98110.74
2018-12-12T01:13:12.253Z,98110.23
2018-12-12T01:15:41.177Z,98112.94
2018-12-12T01:18:10.156Z,98113.95
2018-12-12T01:20:39.120Z,98126.84
2018-12-12T01:23:08.628Z,98126.42
2018-12-12T01:25:37.549Z,98129.78
2018-12-12T01:28:06.311Z,98130.98
2018-12-12T01:30:35.241Z,98135.89
2018-12-12T01:33:05.302Z,98141.11
2018-12-12T01:35:34.046Z,98135.70
2018-12-12T01:38:03.310Z,98137.20
2018-12-12T01:40:32.818Z,98125.76
2018-12-12T01:43:01.804Z,98124.48
2018-12-12T01:45:30.682Z,98125.83
2018-12-12T01:48:00.370Z,98126.14
2018-12-12T01:50:29.196Z,98125.98
2018-12-12T01:52:58.226Z,98121.42
2018-12-12T01:55:27.319Z,98121.42
2018-12-12T01:57:56.178Z,98128.13
2018-12-12T02:00:25.288Z,98128.77
2018-12-12T02:02:54.800Z,98141.97
2018-12-12T02:05:23.662Z,98133.18
2018-12-12T02:07:52.740Z,98134.19
2018-12-12T02:10:21.611Z,98142.27
2018-12-12T02:13:01.931Z,98141.92
2018-12-12T02:15:30.905Z,98137.52
2018-12-12T02:17:59.827Z,98144.52
2018-12-12T02:20:28.699Z,98140.81
2018-12-12T02:22:57.618Z,98149.16
2018-12-12T02:25:26.416Z,98147.23
2018-12-12T02:27:55.658Z,98150.63
2018-12-12T02:30:25.348Z,98155.36
2018-12-12T02:32:54.784Z,98159.42
2018-12-12T02:35:23.897Z,98154.34
2018-12-12T02:37:53.901Z,98152.30
2018-12-12T02:40:22.902Z,98151.59
2018-12-12T02:42:52.098Z,98158.72
2018-12-12T02:45:20.890Z,98160.53
2018-12-12T02:47:50.000Z,98152.75
2018-12-12T02:50:18.916Z,98149.69
2018-12-12T02:52:48.706Z,98145.98
2018-12-12T02:55:17.650Z,98144.43
2018-12-12T02:57:46.919Z,98137.65
2018-12-12T03:00:15.992Z,98144.72
2018-12-12T03:02:45.893Z,98151.00
2018-12-12T03:05:14.634Z,98151.20
2018-12-12T03:07:43.591Z,98152.41
2018-12-12T03:10:12.906Z,98157.52
2018-12-12T03:12:41.830Z,98159.92
2018-12-12T03:15:10.982Z,98162.44
2018-12-12T03:17:39.986Z,98158.38
2018-12-12T03:20:08.801Z,98161.39
2018-12-12T03:22:37.655Z,98165.79
2018-12-12T03:25:06.423Z,98167.09
2018-12-12T03:27:35.352Z,98161.83
2018-12-12T03:30:05.283Z,98165.23
2018-12-12T03:32:34.176Z,98164.87
2018-12-12T03:35:03.074Z,98163.33
2018-12-12T03:37:32.089Z,98161.43
2018-12-12T03:40:01.593Z,98161.08
2018-12-12T03:42:31.620Z,98160.81
2018-12-12T03:45:00.602Z,98167.59
2018-12-12T03:47:29.358Z,98171.16
2018-12-12T03:49:58.836Z,98168.30
2018-12-12T03:52:28.352Z,98166.23
2018-12-12T03:54:57.371Z,98162.19
2018-12-12T03:57:26.559Z,98160.13
2018-12-12T03:59:56.166Z,98163.87
2018-12-12T04:02:25.137Z,98168.89
2018-12-12T04:04:54.579Z,98164.47
2018-12-12T04:07:24.085Z,98160.58
2018-12-12T04:09:53.588Z,98158.20
2018-12-12T04:12:22.660Z,98160.56
2018-12-12T04:14:51.622Z,98163.38
2018-12-12T04:17:20.914Z,98158.66
2018-12-12T04:19:49.838Z,98156.61
2018-12-12T04:22:19.200Z,98157.95
2018-12-12T04:24:48.890Z,98154.54
2018-12-12T04:27:17.767Z,98156.90
2018-12-12T04:29:47.318Z,98154.25
2018-12-12T04:32:16.221Z,98153.59
2018-12-12T04:34:45.287Z,98153.23
2018-12-12T04:37:14.356Z,98147.48
2018-12-12T04:39:44.817Z,98147.97
2018-12-12T04:42:14.099Z,98149.83
2018-12-12T04:44:43.248Z,98147.82
2018-12-12T04:47:13.009Z,98148.47
2018-12-12T04:49:42.046Z,98148.61
2018-12-12T04:52:11.055Z,98149.41
2018-12-12T04:54:39.979Z,98153.33
2018-12-12T04:57:08.902Z,98146.86
2018-12-12T04:59:38.902Z,98149.72
2018-12-12T05:02:08.535Z,98150.72
2018-12-12T05:04:38.960Z,98148.84
2018-12-12T05:07:07.980Z,98154.91
2018-12-12T05:09:39.324Z,98156.92
2018-12-12T05:12:08.660Z,98162.66
2018-12-12T05:14:37.455Z,98163.31
2018-12-12T05:17:06.496Z,98162.56
2018-12-12T05:19:36.157Z,98168.47
2018-12-12T05:22:04.894Z,98171.86
2018-12-12T05:24:33.964Z,98169.80
2018-12-12T05:27:02.902Z,98166.69
2018-12-12T05:29:31.835Z,98169.25
2018-12-12T05:32:01.232Z,98174.06
2018-12-12T05:34:30.359Z,98176.44
2018-12-12T05:37:00.526Z,98172.95
2018-12-12T05:39:29.402Z,98180.42
2018-12-12T05:41:58.755Z,98178.63
2018-12-12T05:44:27.622Z,98174.89
2018-12-12T05:46:56.649Z,98179.36
2018-12-12T05:49:25.644Z,98175.02
2018-12-12T05:51:55.417Z,98175.72
2018-12-12T05:54:24.445Z,98173.72
2018-12-12T05:56:53.794Z,98169.36
2018-12-12T05:59:23.020Z,98172.06
2018-12-12T06:01:55.314Z,98169.15
2018-12-12T06:04:34.548Z,98173.42
2018-12-12T06:07:04.027Z,98173.42
2018-12-12T06:09:33.162Z,98174.39
2018-12-12T06:12:02.314Z,98182.77
2018-12-12T06:14:31.451Z,98181.27
2018-12-12T06:17:00.414Z,98180.77
2018-12-12T06:19:29.343Z,98187.53
2018-12-12T06:21:58.511Z,98188.38
2018-12-12T06:24:27.357Z,98189.08
2018-12-12T06:26:56.897Z,98186.18
2018-12-12T06:29:26.468Z,98195.70
2018-12-12T06:31:56.276Z,98197.61
2018-12-12T06:34:25.629Z,98204.93
2018-12-12T06:36:54.842Z,98202.60
2018-12-12T06:39:23.735Z,98198.22
2018-12-12T06:41:52.920Z,98198.88
2018-12-12T06:44:22.239Z,98195.52
2018-12-12T06:46:51.247Z,98198.19
2018-12-12T06:49:20.680Z,98197.14
2018-12-12T06:51:51.561Z,98205.27
2018-12-12T06:54:22.609Z,98204.73
2018-12-12T06:56:51.563Z,98204.03
2018-12-12T06:59:21.115Z,98205.19
2018-12-12T07:01:50.006Z,98205.34
2018-12-12T07:04:18.910Z,98204.84
2018-12-12T07:06:47.637Z,98215.69
2018-12-12T07:09:17.331Z,98210.91
2018-12-12T07:11:46.330Z,98209.05
2018-12-12T07:14:15.434Z,98214.77
2018-12-12T07:16:44.325Z,98214.23
2018-12-12T07:19:13.271Z,98213.58
2018-12-12T07:21:42.586Z,98215.23
2018-12-12T07:24:11.454Z,98220.00
2018-12-12T07:26:40.367Z,98217.51
2018-12-12T07:29:09.391Z,98218.36
2018-12-12T07:31:38.221Z,98218.11
2018-12-12T07:34:07.165Z,98217.59
2018-12-12T07:36:36.079Z,98216.69
2018-12-12T07:39:07.450Z,98216.23
2018-12-12T07:41:36.809Z,98220.75
2018-12-12T07:44:06.887Z,98221.34
2018-12-12T07:46:36.391Z,98222.68
2018-12-12T07:49:05.695Z,98223.48
2018-12-12T07:51:35.455Z,98226.82
2018-12-12T07:54:05.394Z,98231.69
2018-12-12T07:56:34.399Z,98232.16
2018-12-12T07:59:03.363Z,98237.02
2018-12-12T08:01:32.435Z,98237.59
2018-12-12T08:04:01.766Z,98241.80
2018-12-12T08:06:30.619Z,98246.88
2018-12-12T08:08:59.491Z,98250.48
2018-12-12T08:11:30.149Z,98251.55
2018-12-12T08:13:59.187Z,98247.11
2018-12-12T08:16:28.015Z,98255.66
2018-12-12T08:18:56.774Z,98242.78
2018-12-12T08:21:25.749Z,98251.88
2018-12-12T08:23:55.099Z,98253.87
2018-12-12T08:26:23.978Z,98256.19
2018-12-12T08:28:53.326Z,98249.48
2018-12-12T08:31:22.146Z,98253.69
2018-12-12T08:33:51.082Z,98250.09
2018-12-12T08:36:20.357Z,98254.94
2018-12-12T08:38:49.607Z,98258.47
2018-12-12T08:41:19.065Z,98265.02
2018-12-12T08:43:49.102Z,98263.95
2018-12-12T08:46:18.170Z,98269.82
2018-12-12T08:48:50.122Z,98269.25
2018-12-12T08:51:21.515Z,98272.78
2018-12-12T08:53:50.536Z,98267.16
2018-12-12T08:56:19.273Z,98267.09
2018-12-12T08:58:48.327Z,98274.41
2018-12-12T09:01:17.679Z,98272.45
2018-12-12T09:03:48.223Z,98273.73
2018-12-12T09:06:19.336Z,98276.75
2018-12-12T09:08:48.175Z,98270.92
2018-12-12T09:11:16.934Z,98274.94
2018-12-12T09:13:45.846Z,98275.22
2018-12-12T09:16:15.513Z,98272.80
2018-12-12T09:18:44.582Z,98277.48
2018-12-12T09:21:14.752Z,98278.94
2018-12-12T09:23:44.300Z,98280.92
2018-12-12T09:26:13.926Z,98285.92
2018-12-12T09:28:43.298Z,98281.30
2018-12-12T09:31:12.373Z,98287.87
2018-12-12T09:33:41.267Z,98288.50
2018-12-12T09:36:10.309Z,98281.67
2018-12-12T09:38:39.079Z,98287.21
2018-12-12T09:41:08.211Z,98294.27
2018-12-12T09:43:37.179Z,98289.78
2018-12-12T09:46:06.792Z,98292.44
2018-12-12T09:48:36.131Z,98298.08
2018-12-12T09:51:07.301Z,98296.37
2018-12-12T09:53:35.921Z,98290.61
2018-12-12T09:56:04.803Z,98297.17
2018-12-12T09:58:33.583Z,98291.41
2018-12-12T10:01:02.491Z,98287.78
2018-12-12T10:03:31.658Z,98294.17
2018-12-12T10:06:00.920Z,98298.03
2018-12-12T10:08:30.145Z,98291.77
2018-12-12T10:10:59.471Z,98290.06
2018-12-12T10:13:28.684Z,98289.21
2018-12-12T10:15:57.955Z,98289.21
2018-12-12T10:18:27.734Z,98291.11
2018-12-12T10:20:57.470Z,98291.77
2018-12-12T10:23:26.512Z,98292.05
2018-12-12T10:25:55.711Z,98290.56
2018-12-12T10:28:24.769Z,98285.66
2018-12-12T10:30:53.678Z,98286.02
2018-12-12T10:33:22.451Z,98276.57
2018-12-12T10:35:51.600Z,98279.63
2018-12-12T10:38:21.394Z,98274.23
2018-12-12T10:40:50.810Z,98272.39
2018-12-12T10:43:19.827Z,98269.69
2018-12-12T10:45:49.105Z,98263.79
2018-12-12T10:48:18.403Z,98266.32
2018-12-12T10:50:47.484Z,98265.83
2018-12-12T10:53:17.243Z,98259.93
2018-12-12T10:55:47.182Z,98258.03
2018-12-12T10:58:16.555Z,98257.86
2018-12-12T11:00:51.102Z,98257.37
2018-12-12T11:03:25.853Z,98255.03
2018-12-12T11:05:54.667Z,98258.22
2018-12-12T11:08:23.737Z,98253.68
2018-12-12T11:10:52.650Z,98257.73
2018-12-12T11:13:21.684Z,98256.37
2018-12-12T11:15:50.803Z,98251.47
2018-12-12T11:18:19.951Z,98252.14
2018-12-12T11:20:49.671Z,98241.53
2018-12-12T11:23:20.175Z,98248.42
2018-12-12T11:25:52.041Z,98241.67
2018-12-12T11:28:21.971Z,98242.20
2018-12-12T11:30:51.198Z,98234.59
2018-12-12T11:33:20.229Z,98233.08
2018-12-12T11:35:49.375Z,98227.35
2018-12-12T11:38:18.762Z,98227.49
2018-12-12T11:40:47.656Z,98222.09
2018-12-12T11:43:17.072Z,98227.84
2018-12-12T11:45:45.836Z,98221.73
2018-12-12T11:48:15.214Z,98217.55
2018-12-12T11:50:44.108Z,98218.18
2018-12-12T11:53:13.236Z,98216.34
2018-12-12T11:55:42.331Z,98216.84
2018-12-12T11:58:11.546Z,98214.49
2018-12-12T12:00:40.813Z,98213.78
2018-12-12T12:03:10.556Z,98214.27
2018-12-12T12:05:40.573Z,98212.07
2018-12-12T12:08:09.499Z,98210.86
2018-12-12T12:10:38.824Z,98211.22
2018-12-12T12:13:07.963Z,98208.16
2018-12-12T12:15:37.244Z,98213.42
2018-12-12T12:18:06.573Z,98208.30
2018-12-12T12:20:36.107Z,98202.91
2018-12-12T12:23:05.551Z,98196.16
2018-12-12T12:25:34.820Z,98195.83
2018-12-12T12:28:03.855Z,98197.86
2018-12-12T12:30:32.911Z,98191.25
2018-12-12T12:33:02.145Z,98196.83
2018-12-12T12:35:32.269Z,98199.16
2018-12-12T12:38:01.546Z,98193.41
2018-12-12T12:40:30.991Z,98193.41
2018-12-12T12:42:59.976Z,98196.74
2018-12-12T12:45:29.303Z,98200.16
2018-12-12T12:47:58.652Z,98194.40
2018-12-12T12:50:28.211Z,98191.70
2018-12-12T12:52:57.158Z,98188.01
2018-12-12T12:55:25.979Z,98177.85
2018-12-12T12:57:55.692Z,98172.95
2018-12-12T13:00:24.659Z,98171.96
2018-12-12T13:02:54.392Z,98170.25
2018-12-12T13:05:24.018Z,98173.45
2018-12-12T13:07:55.297Z,98174.44
2018-12-12T13:10:25.211Z,98171.87
2018-12-12T13:12:55.008Z,98172.95
2018-12-12T13:15:24.796Z,98170.39
2018-12-12T13:17:54.393Z,98168.41
2018-12-12T13:20:23.979Z,98169.40
2018-12-12T13:22:53.039Z,98169.05
2018-12-12T13:25:22.746Z,98167.34
2018-12-12T13:27:52.095Z,98168.55
2018-12-12T13:30:21.835Z,98167.83
2018-12-12T13:32:51.138Z,98165.48
2018-12-12T13:35:20.311Z,98162.44
2018-12-12T13:37:49.307Z,98164.14
2018-12-12T13:40:18.558Z,98157.04
2018-12-12T13:42:47.421Z,98159.91
2018-12-12T13:45:16.523Z,98154.52
2018-12-12T13:47:45.416Z,98151.81
2018-12-12T13:50:14.367Z,98149.12
2018-12-12T13:52:47.266Z,98154.66
2018-12-12T13:55:16.942Z,98153.30
2018-12-12T13:57:46.143Z,98147.05
2018-12-12T14:00:14.970Z,98142.52
2018-12-12T14:02:44.577Z,98148.90
2018-12-12T14:05:13.876Z,98140.45
2018-12-12T14:07:43.271Z,98134.69
2018-12-12T14:10:12.669Z,98143.64
2018-12-12T14:12:41.972Z,98147.83
2018-12-12T14:15:11.387Z,98145.84
2018-12-12T14:17:40.691Z,98142.08
2018-12-12T14:20:09.857Z,98140.37
2018-12-12T14:22:40.407Z,98144.95
2018-12-12T14:25:09.722Z,98144.95
2018-12-12T14:27:39.108Z,98146.44
2018-12-12T14:30:10.256Z,98149.63
2018-12-12T14:32:39.342Z,98150.13
2018-12-12T14:35:08.375Z,98144.50
2018-12-12T14:37:37.678Z,98145.72
2018-12-12T14:40:07.821Z,98145.99
2018-12-12T14:42:40.350Z,98145.50
2018-12-12T14:45:18.415Z,98141.59
2018-12-12T14:47:47.271Z,98138.89
2018-12-12T14:50:16.481Z,98133.31
2018-12-12T14:52:45.651Z,98140.55
2018-12-12T14:55:15.177Z,98138.12
2018-12-12T14:57:44.682Z,98141.81
2018-12-12T15:00:15.020Z,98135.57
2018-12-12T15:02:48.716Z,98132.02
2018-12-12T15:05:17.815Z,98134.53
2018-12-12T15:07:47.198Z,98128.78
2018-12-12T15:10:18.244Z,98132.97
2018-12-12T15:12:48.251Z,98133.46
2018-12-12T15:15:17.176Z,98128.47
2018-12-12T15:17:46.840Z,98124.92
2018-12-12T15:20:16.374Z,98128.11
2018-12-12T15:22:45.302Z,98129.95
2018-12-12T15:25:15.340Z,98135.52
2018-12-12T15:27:44.746Z,98133.46
2018-12-12T15:30:13.673Z,98135.16
2018-12-12T15:32:42.563Z,98132.52
2018-12-12T15:35:13.005Z,98136.56
2018-12-12T15:37:44.315Z,98139.77
2018-12-12T15:40:13.783Z,98139.93
2018-12-12T15:42:42.944Z,98147.30
2018-12-12T15:45:11.926Z,98141.77
2018-12-12T15:47:41.991Z,98138.36
2018-12-12T15:50:10.983Z,98143.75
2018-12-12T15:52:41.347Z,98140.70
2018-12-12T15:55:14.573Z,98149.14
2018-12-12T15:57:45.198Z,98151.13
2018-12-12T16:00:15.690Z,98153.11
2018-12-12T16:02:45.140Z,98155.61
2018-12-12T16:05:14.788Z,98161.55
2018-12-12T16:07:44.123Z,98158.50
2018-12-12T16:10:13.171Z,98158.72
2018-12-12T16:12:43.290Z,98163.62
2018-12-12T16:15:12.891Z,98165.46
2018-12-12T16:17:42.099Z,98168.16
2018-12-12T16:20:11.232Z,98171.58
2018-12-12T16:22:42.216Z,98170.27
2018-12-12T16:25:11.422Z,98167.39
2018-12-12T16:27:40.842Z,98165.59
2018-12-12T16:30:10.321Z,98167.44
2018-12-12T16:32:39.803Z,98164.55
2018-12-12T16:35:09.531Z,98168.23
2018-12-12T16:37:38.582Z,98161.27
2018-12-12T16:40:08.961Z,98152.69
2018-12-12T16:42:38.111Z,98154.80
2018-12-12T16:45:07.052Z,98160.02
2018-12-12T16:47:36.156Z,98157.95
2018-12-12T16:50:05.820Z,98161.77
2018-12-12T16:52:36.040Z,98159.66
2018-12-12T16:55:06.269Z,98157.99
2018-12-12T16:57:35.239Z,98164.05
2018-12-12T17:00:06.462Z,98163.09
2018-12-12T17:02:36.558Z,98170.33
2018-12-12T17:05:06.295Z,98174.15
2018-12-12T17:07:35.518Z,98175.00
2018-12-12T17:10:05.003Z,98173.47
2018-12-12T17:12:36.561Z,98172.11
2018-12-12T17:15:07.839Z,98173.10
2018-12-12T17:17:37.535Z,98170.90
2018-12-12T17:20:08.321Z,98178.40
2018-12-12T17:22:37.416Z,98175.93
2018-12-12T17:25:07.179Z,98172.38
2018-12-12T17:27:36.452Z,98169.82
2018-12-12T17:30:06.750Z,98171.53
2018-12-12T17:32:35.563Z,98174.85
2018-12-12T17:35:08.769Z,98175.84
2018-12-12T17:37:36.823Z,98175.97
2018-12-12T17:40:06.336Z,98174.98
2018-12-12T17:42:36.342Z,98178.04
2018-12-12T17:45:05.465Z,98174.13
2018-12-12T17:47:36.789Z,98166.91
2018-12-12T17:50:06.292Z,98171.66
2018-12-12T17:52:35.291Z,98165.19
2018-12-12T17:55:06.445Z,98166.27
2018-12-12T17:57:39.095Z,98165.06
2018-12-12T18:00:09.077Z,98168.11
2018-12-12T18:02:38.546Z,98163.94
2018-12-12T18:05:07.904Z,98172.02
2018-12-12T18:07:36.957Z,98175.32
2018-12-12T18:10:06.153Z,98171.47
2018-12-12T18:12:34.924Z,98167.73
2018-12-12T18:15:04.367Z,98169.57
2018-12-12T18:17:33.662Z,98166.29
2018-12-12T18:20:03.290Z,98162.83
2018-12-12T18:22:32.504Z,98160.97
2018-12-12T18:25:01.410Z,98155.59
2018-12-12T18:27:31.133Z,98159.05
2018-12-12T18:30:00.893Z,98143.96
2018-12-12T18:32:30.454Z,98142.17
2018-12-12T18:35:00.106Z,98145.09
2018-12-12T18:37:30.299Z,98144.47
2018-12-12T18:40:00.211Z,98144.83
2018-12-12T18:42:29.761Z,98145.31
2018-12-12T18:44:59.096Z,98138.44
2018-12-12T18:47:28.372Z,98138.63
2018-12-12T18:49:57.894Z,98143.25
2018-12-12T18:52:27.331Z,98142.54
2018-12-12T18:54:56.629Z,98139.63
2018-12-12T18:57:25.538Z,98139.77
2018-12-12T18:59:54.862Z,98131.66
2018-12-12T19:02:25.249Z,98135.57
2018-12-12T19:04:55.835Z,98136.27
2018-12-12T19:07:24.930Z,98132.83
2018-12-12T19:09:54.107Z,98131.20
2018-12-12T19:12:23.164Z,98129.95
2018-12-12T19:14:57.942Z,98134.99
2018-12-12T19:17:26.975Z,98136.17
2018-12-12T19:19:57.775Z,98132.58
2018-12-12T19:22:26.630Z,98136.80
2018-12-12T19:24:56.046Z,98139.62
2018-12-12T19:27:24.936Z,98131.02
2018-12-12T19:29:55.129Z,98129.27
2018-12-12T19:32:25.051Z,98127.27
2018-12-12T19:34:54.057Z,98118.47
2018-12-12T19:37:23.897Z,98124.16
2018-12-12T19:39:53.262Z,98121.97
2018-12-12T19:42:23.204Z,98122.41
2018-12-12T19:44:52.395Z,98121.55
2018-12-12T19:47:23.137Z,98120.16
2018-12-12T19:49:55.059Z,98119.37
2018-12-12T19:52:25.286Z,98120.42
2018-12-12T19:54:54.734Z,98118.66
2018-12-12T19:57:24.823Z,98122.31
2018-12-12T19:59:54.464Z,98128.15
2018-12-12T20:02:23.366Z,98127.37
2018-12-12T20:04:52.891Z,98122.89
2018-12-12T20:07:22.210Z,98124.95
2018-12-12T20:09:51.778Z,98123.99
2018-12-12T20:12:21.165Z,98121.67
2018-12-12T20:14:50.146Z,98124.17
2018-12-12T20:17:19.227Z,98128.28
2018-12-12T20:19:48.360Z,98123.41
2018-12-12T20:22:17.378Z,98128.99
2018-12-12T20:24:47.523Z,98125.97
2018-12-12T20:27:16.592Z,98130.42
2018-12-12T20:29:45.944Z,98129.73
2018-12-12T20:32:15.823Z,98129.35
2018-12-12T20:34:45.273Z,98120.27
2018-12-12T20:37:15.163Z,98124.13
2018-12-12T20:39:44.443Z,98124.67
2018-12-12T20:42:13.455Z,98124.90
2018-12-12T20:44:42.308Z,98130.32
2018-12-12T20:47:11.294Z,98129.16
2018-12-12T20:49:41.160Z,98135.43
2018-12-12T20:52:11.210Z,98131.59
2018-12-12T20:54:40.863Z,98129.44
2018-12-12T20:57:09.894Z,98119.60
2018-12-12T20:59:39.532Z,98119.28
2018-12-12T21:02:09.695Z,98117.28
2018-12-12T21:04:40.259Z,98122.86
2018-12-12T21:07:10.115Z,98117.63
2018-12-12T21:09:40.333Z,98125.58
2018-12-12T21:12:09.313Z,98116.28
2018-12-12T21:14:38.309Z,98119.00
2018-12-12T21:17:07.499Z,98112.07
2018-12-12T21:19:37.086Z,98114.80
2018-12-12T21:22:07.096Z,98107.66
2018-12-12T21:24:36.505Z,98107.89
2018-12-12T21:27:05.497Z,98107.40
2018-12-12T21:29:34.531Z,98107.20
2018-12-12T21:32:03.435Z,98096.53
2018-12-12T21:34:33.235Z,98095.52
2018-12-12T21:37:02.934Z,98093.84
2018-12-12T21:39:31.825Z,98092.78
2018-12-12T21:42:01.596Z,98089.91
2018-12-12T21:44:30.847Z,98084.64
2018-12-12T21:47:00.127Z,98085.84
2018-12-12T21:49:29.497Z,98077.70
2018-12-12T21:51:58.840Z,98092.44
2018-12-12T21:54:28.085Z,98091.06
2018-12-12T21:56:58.297Z,98085.45
2018-12-12T21:59:27.281Z,98090.69
2018-12-12T22:01:56.251Z,98090.20
2018-12-12T22:04:25.287Z,98081.72
2018-12-12T22:06:54.265Z,98081.04
2018-12-12T22:09:23.417Z,98081.38
2018-12-12T22:11:52.536Z,98084.77
2018-12-12T22:14:22.156Z,98076.62
2018-12-12T22:16:51.584Z,98077.30
2018-12-12T22:19:20.465Z,98068.28
2018-12-12T22:21:49.431Z,98074.41
2018-12-12T22:24:18.712Z,98072.87
2018-12-12T22:26:49.096Z,98076.59
2018-12-12T22:29:19.460Z,98077.42
2018-12-12T22:31:51.090Z,98087.08
2018-12-12T22:34:24.219Z,98080.62
2018-12-12T22:36:53.662Z,98085.66
2018-12-12T22:39:23.477Z,98083.30
2018-12-12T22:41:52.506Z,98081.25
2018-12-12T22:44:21.664Z,98080.72
2018-12-12T22:46:51.127Z,98083.62
2018-12-12T22:49:20.487Z,98074.64
2018-12-12T22:51:49.464Z,98080.19
2018-12-12T22:54:18.895Z,98073.07
2018-12-12T22:56:47.952Z,98075.78
2018-12-12T22:59:17.226Z,98069.16
2018-12-12T23:01:46.763Z,98068.31
2018-12-12T23:04:15.870Z,98074.55
2018-12-12T23:06:46.279Z,98068.98
2018-12-12T23:09:15.536Z,98067.78
2018-12-12T23:11:44.675Z,98061.54
2018-12-12T23:14:14.439Z,98068.78
2018-12-12T23:16:44.431Z,98071.46
2018-12-12T23:19:13.711Z,98064.53
2018-12-12T23:21:42.774Z,98071.12
2018-12-12T23:24:12.081Z,98064.12
2018-12-12T23:26:41.140Z,98059.20
2018-12-12T23:29:11.210Z,98058.70
2018-12-12T23:31:40.035Z,98051.08
2018-12-12T23:34:11.468Z,98057.70
2018-12-12T23:36:40.461Z,98051.27
2018-12-12T23:39:09.480Z,98043.65
2018-12-12T23:41:39.090Z,98044.81
2018-12-12T23:44:08.466Z,98044.03
2018-12-12T23:46:37.346Z,98039.08
2018-12-12T23:49:06.280Z,98035.74
2018-12-12T23:51:35.448Z,98031.02
2018-12-12T23:54:04.374Z,98028.41
2018-12-12T23:56:33.623Z,98030.61
2018-12-12T23:59:02.646Z,98018.42
